Terminal Aerodrome Forecast
Issued by NWS Jackson, MS

Home | Current Version | Previous Version | Text Only | Print | Product List | Glossary On
Versions: 1 2 3 4 5 6 7 8 9 10 11
000
FTUS44 KJAN 191700
TAFGLH
TAF
KGLH 191720Z 1918/2018 04009KT P6SM -RA OVC025
     FM200400 03006KT P6SM BKN006 OVC015=

USA.gov is the U.S. government's official web portal to all federal, state and local government web resources and services.